sensor_id;sensor_type;location;lat;lon;timestamp;P1;durP1;ratioP1;P2;durP2;ratioP2
27225;SDS011;14732;51.074;3.788;2023-03-21T00:02:16;16.88;;;6.68;;
27225;SDS011;14732;51.074;3.788;2023-03-21T00:04:42;13.70;;;6.55;;
27225;SDS011;14732;51.074;3.788;2023-03-21T00:07:07;13.57;;;6.45;;
27225;SDS011;14732;51.074;3.788;2023-03-21T00:09:33;16.95;;;7.03;;
27225;SDS011;14732;51.074;3.788;2023-03-21T00:11:59;16.10;;;6.63;;
27225;SDS011;14732;51.074;3.788;2023-03-21T00:14:26;16.80;;;7.00;;
27225;SDS011;14732;51.074;3.788;2023-03-21T00:16:55;12.90;;;6.47;;
27225;SDS011;14732;51.074;3.788;2023-03-21T00:19:21;16.92;;;5.95;;
27225;SDS011;14732;51.074;3.788;2023-03-21T00:21:50;17.13;;;6.78;;
27225;SDS011;14732;51.074;3.788;2023-03-21T00:24:17;17.60;;;6.70;;
27225;SDS011;14732;51.074;3.788;2023-03-21T00:26:42;17.23;;;6.90;;
27225;SDS011;14732;51.074;3.788;2023-03-21T00:29:08;15.73;;;7.20;;
27225;SDS011;14732;51.074;3.788;2023-03-21T00:31:34;17.15;;;6.93;;
27225;SDS011;14732;51.074;3.788;2023-03-21T00:34:00;15.57;;;6.78;;
27225;SDS011;14732;51.074;3.788;2023-03-21T00:36:26;16.48;;;7.72;;
27225;SDS011;14732;51.074;3.788;2023-03-21T00:38:52;18.95;;;7.70;;
27225;SDS011;14732;51.074;3.788;2023-03-21T00:41:18;19.45;;;7.38;;
27225;SDS011;14732;51.074;3.788;2023-03-21T00:43:43;19.35;;;7.75;;
27225;SDS011;14732;51.074;3.788;2023-03-21T00:46:10;17.40;;;8.00;;
27225;SDS011;14732;51.074;3.788;2023-03-21T00:48:36;18.85;;;7.72;;
27225;SDS011;14732;51.074;3.788;2023-03-21T00:51:02;17.48;;;7.95;;
27225;SDS011;14732;51.074;3.788;2023-03-21T00:53:36;13.98;;;7.13;;
27225;SDS011;14732;51.074;3.788;2023-03-21T00:56:02;20.58;;;7.70;;
27225;SDS011;14732;51.074;3.788;2023-03-21T00:58:28;18.08;;;7.05;;
27225;SDS011;14732;51.074;3.788;2023-03-21T01:00:53;16.60;;;7.85;;
27225;SDS011;14732;51.074;3.788;2023-03-21T01:03:19;16.15;;;7.38;;
27225;SDS011;14732;51.074;3.788;2023-03-21T01:05:46;16.52;;;7.40;;
27225;SDS011;14732;51.074;3.788;2023-03-21T01:08:28;12.75;;;6.80;;
27225;SDS011;14732;51.074;3.788;2023-03-21T01:10:55;20.50;;;7.40;;
27225;SDS011;14732;51.074;3.788;2023-03-21T01:13:24;16.15;;;7.03;;
27225;SDS011;14732;51.074;3.788;2023-03-21T01:15:52;15.65;;;6.90;;
27225;SDS011;14732;51.074;3.788;2023-03-21T01:18:20;19.13;;;6.67;;
27225;SDS011;14732;51.074;3.788;2023-03-21T01:20:49;19.27;;;7.13;;
27225;SDS011;14732;51.074;3.788;2023-03-21T01:23:15;15.88;;;7.13;;
27225;SDS011;14732;51.074;3.788;2023-03-21T01:25:41;16.90;;;6.78;;
27225;SDS011;14732;51.074;3.788;2023-03-21T01:28:07;16.40;;;6.70;;
27225;SDS011;14732;51.074;3.788;2023-03-21T01:30:34;17.48;;;7.38;;
27225;SDS011;14732;51.074;3.788;2023-03-21T01:33:00;15.55;;;7.13;;
27225;SDS011;14732;51.074;3.788;2023-03-21T01:35:26;15.07;;;6.57;;
27225;SDS011;14732;51.074;3.788;2023-03-21T01:37:52;13.98;;;6.30;;
27225;SDS011;14732;51.074;3.788;2023-03-21T01:40:19;12.95;;;6.25;;
27225;SDS011;14732;51.074;3.788;2023-03-21T01:42:48;17.85;;;7.18;;
27225;SDS011;14732;51.074;3.788;2023-03-21T01:48:25;19.92;;;6.40;;
27225;SDS011;14732;51.074;3.788;2023-03-21T01:50:52;12.48;;;5.93;;
27225;SDS011;14732;51.074;3.788;2023-03-21T01:53:21;14.52;;;5.95;;
27225;SDS011;14732;51.074;3.788;2023-03-21T01:55:54;14.60;;;6.45;;
27225;SDS011;14732;51.074;3.788;2023-03-21T01:58:25;13.88;;;5.97;;
27225;SDS011;14732;51.074;3.788;2023-03-21T02:00:51;15.55;;;5.72;;
27225;SDS011;14732;51.074;3.788;2023-03-21T02:03:19;12.15;;;5.97;;
27225;SDS011;14732;51.074;3.788;2023-03-21T02:08:59;14.88;;;6.18;;
27225;SDS011;14732;51.074;3.788;2023-03-21T02:11:28;16.65;;;6.07;;
27225;SDS011;14732;51.074;3.788;2023-03-21T02:13:56;15.45;;;6.10;;
27225;SDS011;14732;51.074;3.788;2023-03-21T02:27:51;15.77;;;5.85;;
27225;SDS011;14732;51.074;3.788;2023-03-21T02:44:11;17.90;;;5.85;;
27225;SDS011;14732;51.074;3.788;2023-03-21T02:49:18;14.18;;;5.15;;
27225;SDS011;14732;51.074;3.788;2023-03-21T02:51:48;13.32;;;5.47;;
27225;SDS011;14732;51.074;3.788;2023-03-21T02:54:18;13.57;;;5.75;;
27225;SDS011;14732;51.074;3.788;2023-03-21T02:56:47;13.45;;;5.38;;
27225;SDS011;14732;51.074;3.788;2023-03-21T02:59:15;15.07;;;5.43;;
27225;SDS011;14732;51.074;3.788;2023-03-21T03:01:43;15.23;;;5.40;;
27225;SDS011;14732;51.074;3.788;2023-03-21T03:04:19;14.13;;;5.68;;
27225;SDS011;14732;51.074;3.788;2023-03-21T03:15:44;10.93;;;5.22;;
27225;SDS011;14732;51.074;3.788;2023-03-21T03:26:19;14.13;;;5.20;;
27225;SDS011;14732;51.074;3.788;2023-03-21T03:28:53;14.57;;;5.32;;
27225;SDS011;14732;51.074;3.788;2023-03-21T03:31:27;14.43;;;5.25;;
27225;SDS011;14732;51.074;3.788;2023-03-21T03:34:02;10.85;;;4.90;;
27225;SDS011;14732;51.074;3.788;2023-03-21T03:36:33;13.60;;;5.40;;
27225;SDS011;14732;51.074;3.788;2023-03-21T03:39:03;13.65;;;5.80;;
27225;SDS011;14732;51.074;3.788;2023-03-21T03:41:33;16.45;;;5.22;;
27225;SDS011;14732;51.074;3.788;2023-03-21T03:44:09;12.68;;;5.35;;
27225;SDS011;14732;51.074;3.788;2023-03-21T03:46:36;10.07;;;5.45;;
27225;SDS011;14732;51.074;3.788;2023-03-21T03:49:12;13.35;;;5.03;;
27225;SDS011;14732;51.074;3.788;2023-03-21T03:54:24;10.75;;;5.13;;
27225;SDS011;14732;51.074;3.788;2023-03-21T03:56:56;12.45;;;5.32;;
27225;SDS011;14732;51.074;3.788;2023-03-21T03:59:22;13.77;;;5.10;;
27225;SDS011;14732;51.074;3.788;2023-03-21T04:01:49;15.80;;;5.82;;
27225;SDS011;14732;51.074;3.788;2023-03-21T04:04:15;16.25;;;5.28;;
27225;SDS011;14732;51.074;3.788;2023-03-21T04:06:44;12.82;;;4.80;;
27225;SDS011;14732;51.074;3.788;2023-03-21T04:09:15;14.02;;;5.20;;
27225;SDS011;14732;51.074;3.788;2023-03-21T04:11:42;14.57;;;5.63;;
27225;SDS011;14732;51.074;3.788;2023-03-21T04:14:08;19.38;;;5.82;;
27225;SDS011;14732;51.074;3.788;2023-03-21T04:16:34;15.07;;;5.63;;
27225;SDS011;14732;51.074;3.788;2023-03-21T04:18:59;13.38;;;5.13;;
27225;SDS011;14732;51.074;3.788;2023-03-21T04:21:26;18.40;;;5.57;;
27225;SDS011;14732;51.074;3.788;2023-03-21T04:23:53;13.77;;;5.75;;
27225;SDS011;14732;51.074;3.788;2023-03-21T04:26:22;15.80;;;5.80;;
27225;SDS011;14732;51.074;3.788;2023-03-21T04:28:49;12.10;;;5.43;;
27225;SDS011;14732;51.074;3.788;2023-03-21T04:31:15;14.60;;;5.70;;
27225;SDS011;14732;51.074;3.788;2023-03-21T04:33:42;13.15;;;5.78;;
27225;SDS011;14732;51.074;3.788;2023-03-21T04:36:08;15.48;;;5.63;;
27225;SDS011;14732;51.074;3.788;2023-03-21T04:38:42;14.93;;;6.07;;
27225;SDS011;14732;51.074;3.788;2023-03-21T04:41:12;18.92;;;6.68;;
27225;SDS011;14732;51.074;3.788;2023-03-21T04:43:38;18.58;;;6.72;;
27225;SDS011;14732;51.074;3.788;2023-03-21T04:46:03;15.60;;;6.88;;
27225;SDS011;14732;51.074;3.788;2023-03-21T04:48:30;14.40;;;6.93;;
27225;SDS011;14732;51.074;3.788;2023-03-21T04:50:55;15.90;;;6.65;;
27225;SDS011;14732;51.074;3.788;2023-03-21T04:53:21;15.32;;;6.70;;
27225;SDS011;14732;51.074;3.788;2023-03-21T04:55:47;18.88;;;7.10;;
27225;SDS011;14732;51.074;3.788;2023-03-21T04:58:12;25.90;;;7.95;;
27225;SDS011;14732;51.074;3.788;2023-03-21T05:00:38;18.98;;;7.80;;
27225;SDS011;14732;51.074;3.788;2023-03-21T05:03:04;18.13;;;7.32;;
27225;SDS011;14732;51.074;3.788;2023-03-21T05:05:33;16.58;;;7.30;;
27225;SDS011;14732;51.074;3.788;2023-03-21T05:08:03;22.27;;;8.00;;
27225;SDS011;14732;51.074;3.788;2023-03-21T05:10:29;20.17;;;7.90;;
27225;SDS011;14732;51.074;3.788;2023-03-21T05:12:55;24.13;;;8.20;;
27225;SDS011;14732;51.074;3.788;2023-03-21T05:15:21;17.55;;;7.88;;
27225;SDS011;14732;51.074;3.788;2023-03-21T05:17:46;19.75;;;8.07;;
27225;SDS011;14732;51.074;3.788;2023-03-21T05:20:13;20.40;;;8.80;;
27225;SDS011;14732;51.074;3.788;2023-03-21T05:22:40;18.55;;;8.90;;
27225;SDS011;14732;51.074;3.788;2023-03-21T05:25:07;16.20;;;8.45;;
27225;SDS011;14732;51.074;3.788;2023-03-21T05:27:33;23.92;;;8.70;;
27225;SDS011;14732;51.074;3.788;2023-03-21T05:30:05;23.67;;;9.63;;
27225;SDS011;14732;51.074;3.788;2023-03-21T05:32:38;22.25;;;9.13;;
27225;SDS011;14732;51.074;3.788;2023-03-21T05:35:04;23.27;;;9.63;;
27225;SDS011;14732;51.074;3.788;2023-03-21T05:37:30;22.30;;;9.43;;
27225;SDS011;14732;51.074;3.788;2023-03-21T05:39:56;21.52;;;9.63;;
27225;SDS011;14732;51.074;3.788;2023-03-21T05:42:22;19.27;;;8.77;;
27225;SDS011;14732;51.074;3.788;2023-03-21T05:44:47;20.38;;;9.25;;
27225;SDS011;14732;51.074;3.788;2023-03-21T05:47:13;27.92;;;9.73;;
27225;SDS011;14732;51.074;3.788;2023-03-21T05:49:41;26.00;;;9.23;;
27225;SDS011;14732;51.074;3.788;2023-03-21T05:52:07;28.10;;;9.95;;
27225;SDS011;14732;51.074;3.788;2023-03-21T05:54:33;19.85;;;8.95;;
27225;SDS011;14732;51.074;3.788;2023-03-21T05:56:58;25.95;;;9.95;;
27225;SDS011;14732;51.074;3.788;2023-03-21T05:59:24;24.77;;;10.57;;
27225;SDS011;14732;51.074;3.788;2023-03-21T06:01:50;21.88;;;10.15;;
27225;SDS011;14732;51.074;3.788;2023-03-21T06:04:16;29.58;;;10.45;;
27225;SDS011;14732;51.074;3.788;2023-03-21T06:06:42;21.70;;;9.68;;
27225;SDS011;14732;51.074;3.788;2023-03-21T06:09:07;23.88;;;11.00;;
27225;SDS011;14732;51.074;3.788;2023-03-21T06:11:34;26.27;;;11.65;;
27225;SDS011;14732;51.074;3.788;2023-03-21T06:14:01;31.52;;;10.15;;
27225;SDS011;14732;51.074;3.788;2023-03-21T06:16:27;30.35;;;11.20;;
27225;SDS011;14732;51.074;3.788;2023-03-21T06:18:54;25.35;;;11.70;;
27225;SDS011;14732;51.074;3.788;2023-03-21T06:21:20;30.58;;;11.80;;
27225;SDS011;14732;51.074;3.788;2023-03-21T06:23:46;26.05;;;11.77;;
27225;SDS011;14732;51.074;3.788;2023-03-21T06:26:12;30.08;;;12.07;;
27225;SDS011;14732;51.074;3.788;2023-03-21T06:28:38;21.92;;;11.98;;
27225;SDS011;14732;51.074;3.788;2023-03-21T06:31:04;29.45;;;12.20;;
27225;SDS011;14732;51.074;3.788;2023-03-21T06:33:30;26.40;;;12.73;;
27225;SDS011;14732;51.074;3.788;2023-03-21T06:35:56;30.65;;;12.32;;
27225;SDS011;14732;51.074;3.788;2023-03-21T06:38:23;29.80;;;12.45;;
27225;SDS011;14732;51.074;3.788;2023-03-21T06:40:50;27.67;;;11.80;;
27225;SDS011;14732;51.074;3.788;2023-03-21T06:43:16;29.58;;;12.55;;
27225;SDS011;14732;51.074;3.788;2023-03-21T06:45:42;26.38;;;12.77;;
27225;SDS011;14732;51.074;3.788;2023-03-21T06:48:08;26.15;;;13.20;;
27225;SDS011;14732;51.074;3.788;2023-03-21T06:50:34;24.88;;;12.13;;
27225;SDS011;14732;51.074;3.788;2023-03-21T06:53:00;25.75;;;12.43;;
27225;SDS011;14732;51.074;3.788;2023-03-21T06:55:26;22.13;;;12.32;;
27225;SDS011;14732;51.074;3.788;2023-03-21T06:57:53;26.85;;;12.40;;
27225;SDS011;14732;51.074;3.788;2023-03-21T07:00:22;23.77;;;12.15;;
27225;SDS011;14732;51.074;3.788;2023-03-21T07:02:48;26.15;;;11.00;;
27225;SDS011;14732;51.074;3.788;2023-03-21T07:05:15;27.50;;;12.00;;
27225;SDS011;14732;51.074;3.788;2023-03-21T07:07:41;29.35;;;11.70;;
27225;SDS011;14732;51.074;3.788;2023-03-21T07:10:07;25.45;;;11.70;;
27225;SDS011;14732;51.074;3.788;2023-03-21T07:12:34;26.45;;;11.90;;
27225;SDS011;14732;51.074;3.788;2023-03-21T07:15:03;26.73;;;11.07;;
27225;SDS011;14732;51.074;3.788;2023-03-21T07:17:31;22.58;;;10.27;;
27225;SDS011;14732;51.074;3.788;2023-03-21T07:19:56;25.55;;;11.18;;
27225;SDS011;14732;51.074;3.788;2023-03-21T07:22:22;24.33;;;10.93;;
27225;SDS011;14732;51.074;3.788;2023-03-21T07:24:48;22.85;;;9.70;;
27225;SDS011;14732;51.074;3.788;2023-03-21T07:27:16;21.58;;;10.10;;
27225;SDS011;14732;51.074;3.788;2023-03-21T07:29:42;22.73;;;9.93;;
27225;SDS011;14732;51.074;3.788;2023-03-21T07:32:11;17.42;;;9.73;;
27225;SDS011;14732;51.074;3.788;2023-03-21T07:34:37;17.85;;;9.73;;
27225;SDS011;14732;51.074;3.788;2023-03-21T07:37:03;23.17;;;9.27;;
27225;SDS011;14732;51.074;3.788;2023-03-21T07:39:31;22.63;;;9.80;;
27225;SDS011;14732;51.074;3.788;2023-03-21T07:41:58;17.98;;;9.10;;
27225;SDS011;14732;51.074;3.788;2023-03-21T07:44:24;18.95;;;8.32;;
27225;SDS011;14732;51.074;3.788;2023-03-21T07:46:49;15.75;;;7.75;;
27225;SDS011;14732;51.074;3.788;2023-03-21T07:49:15;17.05;;;7.30;;
27225;SDS011;14732;51.074;3.788;2023-03-21T07:51:41;16.98;;;7.97;;
27225;SDS011;14732;51.074;3.788;2023-03-21T07:54:07;15.88;;;7.70;;
27225;SDS011;14732;51.074;3.788;2023-03-21T07:56:33;12.50;;;6.75;;
27225;SDS011;14732;51.074;3.788;2023-03-21T07:58:59;17.45;;;6.88;;
27225;SDS011;14732;51.074;3.788;2023-03-21T08:01:24;15.55;;;6.82;;
27225;SDS011;14732;51.074;3.788;2023-03-21T08:03:50;15.50;;;6.05;;
27225;SDS011;14732;51.074;3.788;2023-03-21T08:06:20;21.70;;;7.07;;
27225;SDS011;14732;51.074;3.788;2023-03-21T08:08:46;13.35;;;6.63;;
27225;SDS011;14732;51.074;3.788;2023-03-21T08:11:13;16.08;;;5.80;;
27225;SDS011;14732;51.074;3.788;2023-03-21T08:13:39;15.77;;;6.28;;
27225;SDS011;14732;51.074;3.788;2023-03-21T08:16:06;14.55;;;6.72;;
27225;SDS011;14732;51.074;3.788;2023-03-21T08:18:32;16.52;;;6.68;;
27225;SDS011;14732;51.074;3.788;2023-03-21T08:20:58;14.38;;;5.57;;
27225;SDS011;14732;51.074;3.788;2023-03-21T08:23:24;12.85;;;6.38;;
27225;SDS011;14732;51.074;3.788;2023-03-21T08:25:53;11.57;;;5.75;;
27225;SDS011;14732;51.074;3.788;2023-03-21T08:28:20;20.35;;;5.95;;
27225;SDS011;14732;51.074;3.788;2023-03-21T08:30:46;13.60;;;5.43;;
27225;SDS011;14732;51.074;3.788;2023-03-21T08:33:13;12.63;;;5.43;;
27225;SDS011;14732;51.074;3.788;2023-03-21T08:35:39;14.38;;;5.53;;
27225;SDS011;14732;51.074;3.788;2023-03-21T08:38:05;13.90;;;5.55;;
27225;SDS011;14732;51.074;3.788;2023-03-21T08:40:31;11.68;;;4.95;;
27225;SDS011;14732;51.074;3.788;2023-03-21T08:42:58;17.17;;;5.03;;
27225;SDS011;14732;51.074;3.788;2023-03-21T08:45:23;11.90;;;5.38;;
27225;SDS011;14732;51.074;3.788;2023-03-21T08:47:51;11.43;;;5.60;;
27225;SDS011;14732;51.074;3.788;2023-03-21T08:50:19;11.55;;;5.10;;
27225;SDS011;14732;51.074;3.788;2023-03-21T08:52:46;13.05;;;5.70;;
27225;SDS011;14732;51.074;3.788;2023-03-21T08:55:13;12.95;;;5.32;;
27225;SDS011;14732;51.074;3.788;2023-03-21T08:57:39;11.18;;;4.68;;
27225;SDS011;14732;51.074;3.788;2023-03-21T09:00:06;11.80;;;5.25;;
27225;SDS011;14732;51.074;3.788;2023-03-21T09:02:41;15.23;;;5.20;;
27225;SDS011;14732;51.074;3.788;2023-03-21T09:05:12;12.15;;;5.72;;
27225;SDS011;14732;51.074;3.788;2023-03-21T09:07:38;12.63;;;5.05;;
27225;SDS011;14732;51.074;3.788;2023-03-21T09:10:06;13.27;;;5.07;;
27225;SDS011;14732;51.074;3.788;2023-03-21T09:12:34;16.20;;;4.93;;
27225;SDS011;14732;51.074;3.788;2023-03-21T09:15:00;15.82;;;5.63;;
27225;SDS011;14732;51.074;3.788;2023-03-21T09:17:29;15.55;;;5.40;;
27225;SDS011;14732;51.074;3.788;2023-03-21T09:19:58;11.53;;;4.77;;
27225;SDS011;14732;51.074;3.788;2023-03-21T09:22:25;12.40;;;4.97;;
27225;SDS011;14732;51.074;3.788;2023-03-21T09:24:51;12.45;;;5.20;;
27225;SDS011;14732;51.074;3.788;2023-03-21T09:27:17;9.93;;;4.65;;
27225;SDS011;14732;51.074;3.788;2023-03-21T09:29:47;9.75;;;4.63;;
27225;SDS011;14732;51.074;3.788;2023-03-21T09:32:14;11.27;;;5.20;;
27225;SDS011;14732;51.074;3.788;2023-03-21T09:34:42;11.43;;;4.88;;
27225;SDS011;14732;51.074;3.788;2023-03-21T09:37:09;12.18;;;4.72;;
27225;SDS011;14732;51.074;3.788;2023-03-21T09:39:37;9.98;;;4.75;;
27225;SDS011;14732;51.074;3.788;2023-03-21T09:42:09;11.20;;;4.90;;
27225;SDS011;14732;51.074;3.788;2023-03-21T09:48:08;11.35;;;4.68;;
27225;SDS011;14732;51.074;3.788;2023-03-21T09:50:43;15.07;;;4.88;;
27225;SDS011;14732;51.074;3.788;2023-03-21T09:55:41;15.20;;;5.13;;
27225;SDS011;14732;51.074;3.788;2023-03-21T09:58:18;14.43;;;4.60;;
27225;SDS011;14732;51.074;3.788;2023-03-21T10:00:50;13.65;;;5.05;;
27225;SDS011;14732;51.074;3.788;2023-03-21T10:03:22;12.50;;;4.90;;
27225;SDS011;14732;51.074;3.788;2023-03-21T10:05:50;13.47;;;4.10;;
27225;SDS011;14732;51.074;3.788;2023-03-21T10:08:23;10.70;;;4.43;;
27225;SDS011;14732;51.074;3.788;2023-03-21T10:10:55;9.23;;;4.37;;
27225;SDS011;14732;51.074;3.788;2023-03-21T10:13:32;10.52;;;4.50;;
27225;SDS011;14732;51.074;3.788;2023-03-21T10:16:01;10.60;;;4.57;;
27225;SDS011;14732;51.074;3.788;2023-03-21T10:18:38;8.27;;;4.28;;
27225;SDS011;14732;51.074;3.788;2023-03-21T10:21:06;11.15;;;4.43;;
27225;SDS011;14732;51.074;3.788;2023-03-21T10:23:38;9.75;;;4.85;;
27225;SDS011;14732;51.074;3.788;2023-03-21T10:26:04;10.43;;;4.82;;
27225;SDS011;14732;51.074;3.788;2023-03-21T10:28:34;14.25;;;5.10;;
27225;SDS011;14732;51.074;3.788;2023-03-21T10:31:05;15.75;;;4.90;;
27225;SDS011;14732;51.074;3.788;2023-03-21T10:33:37;11.70;;;4.60;;
27225;SDS011;14732;51.074;3.788;2023-03-21T10:38:34;10.35;;;5.60;;
27225;SDS011;14732;51.074;3.788;2023-03-21T10:41:01;10.95;;;5.18;;
27225;SDS011;14732;51.074;3.788;2023-03-21T10:45:58;10.73;;;5.03;;
27225;SDS011;14732;51.074;3.788;2023-03-21T10:48:38;13.98;;;5.05;;
27225;SDS011;14732;51.074;3.788;2023-03-21T10:51:11;11.80;;;4.68;;
27225;SDS011;14732;51.074;3.788;2023-03-21T10:53:45;10.73;;;5.47;;
27225;SDS011;14732;51.074;3.788;2023-03-21T10:56:48;10.38;;;4.80;;
27225;SDS011;14732;51.074;3.788;2023-03-21T11:02:04;12.65;;;4.90;;
27225;SDS011;14732;51.074;3.788;2023-03-21T11:04:34;10.95;;;5.15;;
27225;SDS011;14732;51.074;3.788;2023-03-21T11:07:03;10.23;;;4.97;;
27225;SDS011;14732;51.074;3.788;2023-03-21T11:09:47;14.07;;;5.35;;
27225;SDS011;14732;51.074;3.788;2023-03-21T11:12:36;12.02;;;4.78;;
27225;SDS011;14732;51.074;3.788;2023-03-21T11:17:54;8.82;;;4.70;;
27225;SDS011;14732;51.074;3.788;2023-03-21T11:20:21;10.70;;;4.55;;
27225;SDS011;14732;51.074;3.788;2023-03-21T11:22:47;7.63;;;4.35;;
27225;SDS011;14732;51.074;3.788;2023-03-21T11:27:49;8.30;;;4.55;;
27225;SDS011;14732;51.074;3.788;2023-03-21T11:30:20;11.85;;;4.22;;
27225;SDS011;14732;51.074;3.788;2023-03-21T11:32:55;9.23;;;4.50;;
27225;SDS011;14732;51.074;3.788;2023-03-21T11:35:23;8.18;;;3.78;;
27225;SDS011;14732;51.074;3.788;2023-03-21T11:37:53;7.72;;;4.03;;
27225;SDS011;14732;51.074;3.788;2023-03-21T11:42:58;8.30;;;4.20;;
27225;SDS011;14732;51.074;3.788;2023-03-21T11:45:29;10.05;;;3.95;;
27225;SDS011;14732;51.074;3.788;2023-03-21T11:47:57;7.82;;;3.92;;
27225;SDS011;14732;51.074;3.788;2023-03-21T11:55:41;8.95;;;3.63;;
27225;SDS011;14732;51.074;3.788;2023-03-21T11:58:42;5.63;;;3.42;;
27225;SDS011;14732;51.074;3.788;2023-03-21T12:09:37;9.57;;;3.72;;
27225;SDS011;14732;51.074;3.788;2023-03-21T12:12:37;12.48;;;3.53;;
27225;SDS011;14732;51.074;3.788;2023-03-21T12:15:24;9.07;;;3.65;;
27225;SDS011;14732;51.074;3.788;2023-03-21T12:18:05;7.80;;;4.35;;
27225;SDS011;14732;51.074;3.788;2023-03-21T12:25:48;9.88;;;4.03;;
27225;SDS011;14732;51.074;3.788;2023-03-21T12:34:03;8.80;;;3.97;;
27225;SDS011;14732;51.074;3.788;2023-03-21T12:39:34;7.80;;;4.00;;
27225;SDS011;14732;51.074;3.788;2023-03-21T12:42:16;9.40;;;3.95;;
27225;SDS011;14732;51.074;3.788;2023-03-21T12:45:11;12.00;;;4.00;;
27225;SDS011;14732;51.074;3.788;2023-03-21T12:47:47;8.93;;;4.00;;
27225;SDS011;14732;51.074;3.788;2023-03-21T12:50:18;7.68;;;3.65;;
27225;SDS011;14732;51.074;3.788;2023-03-21T12:53:05;12.15;;;4.38;;
27225;SDS011;14732;51.074;3.788;2023-03-21T12:56:00;10.50;;;4.18;;
27225;SDS011;14732;51.074;3.788;2023-03-21T12:58:29;7.78;;;4.30;;
27225;SDS011;14732;51.074;3.788;2023-03-21T13:01:00;8.70;;;4.10;;
27225;SDS011;14732;51.074;3.788;2023-03-21T13:06:12;7.75;;;3.97;;
27225;SDS011;14732;51.074;3.788;2023-03-21T13:08:47;9.25;;;4.43;;
27225;SDS011;14732;51.074;3.788;2023-03-21T13:11:40;8.55;;;4.50;;
27225;SDS011;14732;51.074;3.788;2023-03-21T13:16:52;11.65;;;4.50;;
27225;SDS011;14732;51.074;3.788;2023-03-21T13:19:36;11.05;;;4.60;;
27225;SDS011;14732;51.074;3.788;2023-03-21T13:24:46;13.25;;;5.30;;
27225;SDS011;14732;51.074;3.788;2023-03-21T13:27:30;12.15;;;4.78;;
27225;SDS011;14732;51.074;3.788;2023-03-21T13:32:39;10.15;;;4.93;;
27225;SDS011;14732;51.074;3.788;2023-03-21T13:37:41;9.82;;;5.47;;
27225;SDS011;14732;51.074;3.788;2023-03-21T13:40:24;10.77;;;5.45;;
27225;SDS011;14732;51.074;3.788;2023-03-21T13:42:54;9.00;;;5.50;;
27225;SDS011;14732;51.074;3.788;2023-03-21T13:45:33;11.68;;;5.20;;
27225;SDS011;14732;51.074;3.788;2023-03-21T13:48:26;11.25;;;5.28;;
27225;SDS011;14732;51.074;3.788;2023-03-21T13:51:00;10.65;;;5.78;;
27225;SDS011;14732;51.074;3.788;2023-03-21T13:53:32;10.73;;;5.72;;
27225;SDS011;14732;51.074;3.788;2023-03-21T13:56:13;11.25;;;6.03;;
27225;SDS011;14732;51.074;3.788;2023-03-21T14:06:49;13.65;;;6.50;;
27225;SDS011;14732;51.074;3.788;2023-03-21T14:09:28;13.63;;;6.47;;
27225;SDS011;14732;51.074;3.788;2023-03-21T14:11:57;8.98;;;6.65;;
27225;SDS011;14732;51.074;3.788;2023-03-21T14:14:28;12.95;;;6.78;;
27225;SDS011;14732;51.074;3.788;2023-03-21T14:17:09;11.65;;;6.25;;
27225;SDS011;14732;51.074;3.788;2023-03-21T14:19:40;12.75;;;6.35;;
27225;SDS011;14732;51.074;3.788;2023-03-21T14:22:09;10.82;;;6.55;;
27225;SDS011;14732;51.074;3.788;2023-03-21T14:24:37;12.20;;;7.18;;
27225;SDS011;14732;51.074;3.788;2023-03-21T14:27:03;13.52;;;6.30;;
27225;SDS011;14732;51.074;3.788;2023-03-21T14:29:31;9.60;;;6.00;;
27225;SDS011;14732;51.074;3.788;2023-03-21T14:31:59;11.18;;;5.80;;
27225;SDS011;14732;51.074;3.788;2023-03-21T14:34:26;10.40;;;5.30;;
27225;SDS011;14732;51.074;3.788;2023-03-21T14:36:54;11.27;;;5.60;;
27225;SDS011;14732;51.074;3.788;2023-03-21T14:39:26;11.15;;;5.30;;
27225;SDS011;14732;51.074;3.788;2023-03-21T14:41:54;9.10;;;5.05;;
27225;SDS011;14732;51.074;3.788;2023-03-21T14:44:25;7.68;;;4.47;;
27225;SDS011;14732;51.074;3.788;2023-03-21T14:49:28;6.07;;;4.47;;
27225;SDS011;14732;51.074;3.788;2023-03-21T14:54:24;7.75;;;4.25;;
27225;SDS011;14732;51.074;3.788;2023-03-21T14:56:52;9.15;;;4.60;;
27225;SDS011;14732;51.074;3.788;2023-03-21T14:59:24;4.93;;;3.90;;
27225;SDS011;14732;51.074;3.788;2023-03-21T15:01:55;4.03;;;3.63;;
27225;SDS011;14732;51.074;3.788;2023-03-21T15:04:22;9.70;;;4.03;;
27225;SDS011;14732;51.074;3.788;2023-03-21T15:06:50;4.43;;;3.70;;
27225;SDS011;14732;51.074;3.788;2023-03-21T15:09:24;6.03;;;3.85;;
27225;SDS011;14732;51.074;3.788;2023-03-21T15:11:52;4.57;;;3.40;;
27225;SDS011;14732;51.074;3.788;2023-03-21T15:14:22;5.28;;;3.13;;
27225;SDS011;14732;51.074;3.788;2023-03-21T15:16:54;4.68;;;3.22;;
27225;SDS011;14732;51.074;3.788;2023-03-21T15:19:27;5.35;;;3.10;;
27225;SDS011;14732;51.074;3.788;2023-03-21T15:21:58;5.13;;;3.20;;
27225;SDS011;14732;51.074;3.788;2023-03-21T15:24:30;3.78;;;2.90;;
27225;SDS011;14732;51.074;3.788;2023-03-21T15:27:05;6.18;;;3.47;;
27225;SDS011;14732;51.074;3.788;2023-03-21T15:29:33;5.57;;;3.35;;
27225;SDS011;14732;51.074;3.788;2023-03-21T15:32:05;6.72;;;3.20;;
27225;SDS011;14732;51.074;3.788;2023-03-21T15:34:36;4.18;;;2.70;;
27225;SDS011;14732;51.074;3.788;2023-03-21T15:37:06;4.88;;;3.00;;
27225;SDS011;14732;51.074;3.788;2023-03-21T15:39:39;4.00;;;2.65;;
27225;SDS011;14732;51.074;3.788;2023-03-21T15:42:18;4.72;;;2.63;;
27225;SDS011;14732;51.074;3.788;2023-03-21T15:45:23;6.78;;;3.15;;
27225;SDS011;14732;51.074;3.788;2023-03-21T15:47:51;5.03;;;2.53;;
27225;SDS011;14732;51.074;3.788;2023-03-21T15:52:49;5.38;;;2.80;;
27225;SDS011;14732;51.074;3.788;2023-03-21T15:55:20;10.02;;;2.67;;
27225;SDS011;14732;51.074;3.788;2023-03-21T15:57:51;6.15;;;2.65;;
27225;SDS011;14732;51.074;3.788;2023-03-21T16:03:01;5.57;;;2.88;;
27225;SDS011;14732;51.074;3.788;2023-03-21T16:05:59;7.97;;;2.85;;
27225;SDS011;14732;51.074;3.788;2023-03-21T16:08:46;8.60;;;5.00;;
27225;SDS011;14732;51.074;3.788;2023-03-21T16:11:27;4.97;;;2.78;;
27225;SDS011;14732;51.074;3.788;2023-03-21T16:14:00;5.65;;;3.00;;
27225;SDS011;14732;51.074;3.788;2023-03-21T16:16:27;10.20;;;3.30;;
27225;SDS011;14732;51.074;3.788;2023-03-21T16:18:54;4.10;;;2.90;;
27225;SDS011;14732;51.074;3.788;2023-03-21T16:21:21;4.70;;;2.95;;
27225;SDS011;14732;51.074;3.788;2023-03-21T16:23:48;6.65;;;2.83;;
27225;SDS011;14732;51.074;3.788;2023-03-21T16:26:16;5.97;;;3.08;;
27225;SDS011;14732;51.074;3.788;2023-03-21T16:28:45;8.07;;;2.95;;
27225;SDS011;14732;51.074;3.788;2023-03-21T16:31:13;6.22;;;3.15;;
27225;SDS011;14732;51.074;3.788;2023-03-21T16:33:40;12.35;;;3.30;;
27225;SDS011;14732;51.074;3.788;2023-03-21T16:36:10;9.10;;;3.83;;
27225;SDS011;14732;51.074;3.788;2023-03-21T16:38:37;7.50;;;2.97;;
27225;SDS011;14732;51.074;3.788;2023-03-21T16:41:07;7.43;;;3.08;;
27225;SDS011;14732;51.074;3.788;2023-03-21T16:43:34;6.07;;;3.28;;
27225;SDS011;14732;51.074;3.788;2023-03-21T16:46:03;7.50;;;3.57;;
27225;SDS011;14732;51.074;3.788;2023-03-21T16:48:29;5.95;;;3.40;;
27225;SDS011;14732;51.074;3.788;2023-03-21T16:50:55;6.60;;;3.15;;
27225;SDS011;14732;51.074;3.788;2023-03-21T16:53:20;7.55;;;3.38;;
27225;SDS011;14732;51.074;3.788;2023-03-21T16:55:46;6.90;;;3.10;;
27225;SDS011;14732;51.074;3.788;2023-03-21T16:58:13;5.90;;;3.35;;
27225;SDS011;14732;51.074;3.788;2023-03-21T17:00:40;5.93;;;3.30;;
27225;SDS011;14732;51.074;3.788;2023-03-21T17:03:15;6.95;;;3.60;;
27225;SDS011;14732;51.074;3.788;2023-03-21T17:05:45;8.18;;;3.60;;